Main page
METAR-TAF:

METAR-TAF

Airports :

Córdoba, Spain

Córdoba Airport

latitude: 37-51N, longitude: 004-51W, elevation: 90 m

Current weather observation

The report was made 19 minutes ago, at 03:30 UTC
Calm wind
Temperature 16°C
Humidity 68%
Pressure 1019 hPa
Visibility 10 km or more

METAR: LEBA 200330Z AUTO 00000KT 9999 NCD 16/10 Q1019

Time: 05:49 (03:49 UTC)

Forecast

The report was made 1 hour and 49 minutes ago, at 02:00 UTC
Forecast valid from 20 at 03 UTC to 20 at 12 UTC
Wind 2 kt from variable directions
Visibility 10 km or more
no clouds below 1500 m and no cumulonimbus

TAF: LEBA 200200Z 2003/2012 VRB02KT CAVOK

Weather observations and forecasts of more than 4000 airports (METAR and TAF reports).

The available stations are represented by yellow and red dots on the map.

Hover mouse over dot to see the name of the station.

Then click to see weather observations and forecasts.

To change the map : click on the green buttons with a black cross to zoom in, on the green button with a dash to zoom out, or on the green arrows for adjacent maps.


METAR-TAF: